Les résultats de cette page
ont été mis à jour.

21/04/2024

La Renardaise

Chateaurenard (13) - Course à pied

Vous pouvez entrer votre N° de dossard, ou votre nom pour atteindre directement votre classement. Si vous voulez avoir une vue détaillée de votre seule performance cliquez sur votre ligne , vous aurez une lecture plus aisée et complète (temps intermédiaires , etc..) Pour afficher que les classements de votre catégorie utilisez le libellé abrégé de celle-ci "SeM" par exemple pour les séniors Masculins. Pour obtenir les Podiums scratch entrez "SCR" , Pour les podiums catégories "CAT"
Clt. Doss. Nom Class/Sx Class/Cat Temps Podiums Club
1 530 MARTINOT Geoffrey M(1.) SeM(1.) 00:19:06 SCR Mondovélo avignon le pontet
2 692 FERRETTI Ivan M(2.) M0M(1.) 00:19:08 SCR
3 655 TINEVEZ Maxime M(3.) M2M(1.) 00:19:25 SCR Menerbes running
4 638 LORINO Joshua M(4.) MiM(1.) 00:20:37 CAT Fitrun 84
5 690 DUBAIL Maxime M(5.) SeM(2.) 00:20:44 CAT Trail club de provence
6 671 CHABAUD Guillaume M(6.) M2M(2.) 00:20:50 CAT Creno
7 628 PALA Arnaud M(7.) M0M(2.) 00:21:24 CAT
8 665 MASSARI Bastien M(8.) M0M(3.) 00:21:25
9 572 CHEVAL Armand M(9.) CaM(1.) 00:21:59 CAT Ac st remy
10 684 KALIPE Charles M(10.) JuM(1.) 00:22:59 CAT
11 538 CHELLY Nathan M(11.) JuM(2.) 00:23:00
12 631 LEBEL Noé M(12.) JuM(3.) 00:23:33
13 596 PACCHIANA Sébastien M(13.) M1M(1.) 00:23:33 CAT
14 561 NICOD Romain M(14.) M1M(2.) 00:23:47 Chato forme
15 559 DUMOULIN Maxence M(15.) JuM(4.) 00:24:42
16 611 BARRALI Gabriel M(16.) CaM(2.) 00:24:51
17 656 GAUTHIEZ Kevin M(17.) M1M(3.) 00:24:52
18 664 BALESI Estella F(1.) M1F(1.) 00:24:53 SCR Chato forme
19 687 GEMELLI Marion F(2.) M1F(2.) 00:24:58 SCR
20 670 CLARE Jake M(18.) CaM(3.) 00:25:12
21 602 ALBARACINE Renaud M(19.) M3M(1.) 00:25:12 CAT Rochefort sport athlétisme
22 694 ZELI Laurent M(20.) M3M(2.) 00:25:15 Acra arles
23 622 ALBA Frederic M(21.) M1M(4.) 00:25:21
24 704 DEBANNE Yohan M(22.) M2M(3.) 00:25:22
25 595 DOUVILLE Lionel M(23.) M0M(4.) 00:25:28
26 678 BLACHON Benjamin M(24.) SeM(3.) 00:25:33 La crau fc
27 660 VERDUZIER Hugo M(25.) SeM(4.) 00:25:37
28 700 BATEMAN Timothée M(26.) SeM(5.) 00:25:45
29 609 PARIS Loan M(27.) CaM(4.) 00:25:52 Asso ecovoisin du vigneret
30 683 PRUDHOMME Hector M(28.) JuM(5.) 00:26:05
31 681 BLANC Anaïs F(3.) M0F(1.) 00:26:07 SCR Courir a beaucaire
32 555 PUECH Benjamin M(29.) MiM(2.) 00:26:15
33 603 ALBARACINE Carla F(4.) JuF(1.) 00:26:16 CAT
34 560 MENDEZ Steven M(30.) SeM(6.) 00:26:36
35 689 LAMBOUR Kelyan M(31.) CaM(5.) 00:26:41
36 601 TAHIRI Naël M(32.) CaM(6.) 00:26:41
37 544 CANAGUIER Bastien M(33.) SeM(7.) 00:26:54
38 647 MURAILLAT David M(34.) M0M(5.) 00:27:08
39 613 MASSON-FAUCHIER Robin M(35.) MiM(3.) 00:27:17 Tarahumara
40 533 STOERI François M(36.) CaM(7.) 00:28:03
41 558 GIRODON Nathan M(37.) SeM(8.) 00:28:07
42 695 REYMONET Alexandre M(38.) M3M(3.) 00:28:08 1000 pattes du pontet
43 616 LECLERCQ Romain M(39.) M1M(5.) 00:28:16 Chato forme
44 644 CLARET Claret M(40.) M0M(6.) 00:28:18 Canikaze 84
45 617 CHARRIERE Cedric M(41.) M0M(7.) 00:28:29
46 688 ANDREA Yann M(42.) M1M(6.) 00:28:36
47 608 PARIS Olivier M(43.) M2M(4.) 00:28:53 Asso ecovoisin du vigneret
48 629 SALEUR Jonathan M(44.) M0M(8.) 00:29:14
49 697 ROSSI Emmanuelle F(5.) M2F(1.) 00:29:20 CAT Chato forme
50 642 BOMIEUR Edith F(6.) SeF(1.) 00:29:30 CAT
51 703 BERNARD Emilie F(7.) M2F(2.) 00:29:32 Tarahumara
52 516 TESTUZ Patrick M(45.) M2M(5.) 00:29:57
53 706 BERTOLOTTI Clémence F(8.) M0F(2.) 00:29:58 CAT
54 661 PARISI Théo M(46.) SeM(9.) 00:30:05
55 580 JUILLIEN Rafaël M(47.) JuM(6.) 00:30:10 Ac st remy
56 612 SYLVESTRE Rémi M(48.) M6M(1.) 00:30:20 CAT
57 501 PAOLIERI Brice M(49.) SeM(10.) 00:30:30
58 524 ENTAT Bastien M(50.) MiM(4.) 00:30:30
59 534 CALMETTES Charlène F(9.) M0F(3.) 00:30:41
60 585 CUVILLIEZ Charline F(10.) CaF(1.) 00:30:50 CAT As cavaillon
61 707 DONDERIS Eulalie F(11.) JuF(2.) 00:30:52
62 531 TESSIER Amaldie F(12.) SeF(2.) 00:31:09
63 549 RUBIGNY Nathalie F(13.) M3F(1.) 00:31:26 CAT
64 701 RIDANE Souad F(14.) M3F(2.) 00:31:33 Les gambettes agiles
65 667 MONTABONNET Lilo F(15.) JuF(3.) 00:31:34
66 553 MIRALLES Virgile M(51.) M7M(1.) 00:31:35 CAT Avignon le pontet triathlon
67 649 VERMAT Ysaline F(16.) SeF(3.) 00:31:41
68 543 PRADEL Laure F(17.) M2F(3.) 00:31:42
69 545 ROBIN Anais F(18.) M1F(3.) 00:32:05 CAT
70 632 AYASSE Valentin M(52.) SeM(11.) 00:32:29
71 651 DUNAND Carine F(19.) M2F(4.) 00:32:45 Sc chateaurenard
72 529 GAY-YANNAKIS Héléna F(20.) SeF(4.) 00:32:49
73 682 BAUMGARTNER Amaury M(53.) JuM(7.) 00:32:58
74 624 DELORME Tiana F(21.) CaF(2.) 00:32:58
75 548 PUECH Philippe M(54.) M3M(4.) 00:33:10
76 562 LECLERCQ Mélanie F(22.) M1F(4.) 00:33:19 Association chato form
77 657 AZAÏS Denis M(55.) M2M(6.) 00:34:03
78 546 MATTAIX Céline F(23.) M1F(5.) 00:34:04
79 547 PUECH Stéphanie F(24.) M3F(3.) 00:34:07
80 597 LECLERCQ Johan M(56.) MiM(5.) 00:34:36
81 653 ISOARD DUMONT Severine F(25.) M3F(4.) 00:34:39 Menerbes running
82 711 BERUD Nathalie F(26.) M4F(1.) 00:35:18 CAT
83 513 PEREZ Clement M(57.) SeM(12.) 00:35:24
84 514 MONTEMONT Kathleen F(27.) SeF(5.) 00:35:24
85 536 JULIEN Kim-Lan F(28.) SeF(6.) 00:35:26
86 587 LIENS Thomas M(58.) CaM(8.) 00:35:48 Harmonie cimes
87 566 SCIORATO Christelle F(29.) M2F(5.) 00:35:52 Ac st remy
88 511 GIRAUD Emilie F(30.) M0F(4.) 00:35:57
89 581 RABOUIN Louane F(31.) CaF(3.) 00:36:01 Ac st remy
90 568 RABOUIN Sandrine F(32.) M2F(6.) 00:36:01 Ac st remy
91 698 ALEX Capucine F(33.) JuF(4.) 00:36:01
92 699 RAYMOND Clémence F(34.) JuF(5.) 00:36:04
93 540 GIRARD Charlene F(35.) M0F(5.) 00:36:10
94 600 DOMENECH Jean Pierre M(59.) M8M(1.) 00:36:13 CAT Cross trainer 13
95 515 TESTUZ Clémentine F(36.) M1F(6.) 00:36:19
96 599 VIGIER Pauline F(37.) SeF(7.) 00:36:20 Tarahumara
97 503 BALMÈS Julie F(38.) M1F(7.) 00:36:21
98 693 MASSERET Florian M(60.) SeM(13.) 00:36:32
99 705 HUGEDE Pauline F(39.) SeF(8.) 00:36:32
100 686 GIACOMINI Thibault M(61.) SeM(14.) 00:36:32
101 564 CESTIER Audrey F(40.) M0F(6.) 00:36:39
102 504 ROUQUEIROL Audrey F(41.) M0F(7.) 00:36:39
103 505 DE MARI Julie F(42.) M0F(8.) 00:36:39
104 506 VEYRIER Charlene F(43.) M0F(9.) 00:36:39
105 573 GELOT Philippe M(62.) M8M(2.) 00:36:49 Ac st remy
106 575 BOUFASA Naïma F(44.) M4F(2.) 00:36:49 Ac st remy
107 654 TOURTIER Ghislaine F(45.) M5F(1.) 00:36:49 CAT Ac st remy
108 614 MAGOT FELTZINGER Fanny F(46.) SeF(9.) 00:36:56 Asva
109 637 MAGOT Jean-Marc M(63.) M4M(1.) 00:36:56 CAT
110 604 THOMAS Xavier M(64.) SeM(15.) 00:37:20
111 618 ROCA Victor M(65.) M8M(3.) 00:37:24 La gambade rochefortaise
112 532 QUITTARD Christelle F(47.) M2F(7.) 00:37:24 Tarahumara
113 646 PÈBRE Juliette F(48.) M3F(5.) 00:37:24
114 648 BERTHET Carole F(49.) M2F(8.) 00:37:24
115 615 RHAME Christine F(50.) M4F(3.) 00:37:27
116 626 ARATA Roger M(66.) M5M(1.) 00:37:27 CAT Tj avignon
117 570 DANCHESI Laurent M(67.) M3M(5.) 00:37:32 Ac st remy
118 577 GEUNA Mélanie F(51.) SeF(10.) 00:37:41 Olympique badminton calavon 84
119 623 GUIRAND Christine F(52.) M5F(2.) 00:37:55 Electron libre
120 641 BÉATRIX Julie F(53.) SeF(11.) 00:37:57 Ac st remy
121 523 ENTAT Delphine F(54.) M1F(8.) 00:37:57
122 679 RAVOUX Marion F(55.) SeF(12.) 00:38:01
123 557 HERDAN Maeva F(56.) SeF(13.) 00:38:13
124 512 PANKERT Marie F(57.) M1F(9.) 00:38:22
125 508 MOUSSA Suzanna F(58.) M0F(10.) 00:38:22
126 578 JUILLIEN Léna F(59.) EsF(1.) 00:38:23 CAT Ac st remy
127 567 DE RUYCK Sophie F(60.) M2F(9.) 00:38:25 Ac st remy
128 625 TORRES Marion F(61.) SeF(14.) 00:38:26
129 537 CANAGUIER Alain M(68.) M5M(2.) 00:38:28
130 607 JACQUEL Mylène F(62.) SeF(15.) 00:38:37
131 712 ADAMBIEWICZ Jerome M(69.) M1M(7.) 00:38:42
132 563 BARRAILLER Rachel F(63.) M1F(10.) 00:38:45
133 702 MALEZIEUX Aurelie F(64.) M0F(11.) 00:38:45
134 635 BEATRIX Philippe M(70.) M5M(3.) 00:38:47 Ac st remy
135 605 CAILLAUD Benedicte F(65.) M3F(6.) 00:38:59
136 672 TENETTE Aline F(66.) M2F(10.) 00:39:06
137 550 CHARTRON Vanessa F(67.) M2F(11.) 00:39:11
138 579 RABOUIN Léa F(68.) EsF(2.) 00:39:12 Ac st remy
139 569 RABOUIN Nicolas M(71.) M2M(7.) 00:39:13 Ac st remy
140 675 RABATTU Charline F(69.) M0F(12.) 00:39:16
141 586 VINKEL Nathalie F(70.) M2F(12.) 00:39:17
142 640 DINARD Annie F(71.) M8F(1.) 00:39:27 CAT Ac st remy
143 571 CORDEIL Andrée F(72.) M3F(7.) 00:39:27 Ac st remy
144 520 KUENZI Emilie F(73.) M0F(13.) 00:39:49
145 696 PASSCHIER Maria F(74.) M2F(13.) 00:39:53
146 518 BRECHET BOURRAIN Laetitia F(75.) M1F(11.) 00:40:07
147 519 RIPPOLL Alban M(72.) M0M(9.) 00:40:07
148 517 DELANNOY Florence F(76.) M3F(8.) 00:40:07
149 574 DUC-DESMARQUETS Laure F(77.) M1F(12.) 00:40:13 Ac st remy
150 663 CRISTOFINI Romain M(73.) M3M(6.) 00:40:17
151 662 CRISTOFINI Virginie F(78.) M3F(9.) 00:40:17
152 691 PEYRE Lionel M(74.) M5M(4.) 00:40:18 Être et durer
153 652 GALTIER Florence F(79.) M4F(4.) 00:40:18
154 565 CISZEWSKA Karine F(80.) M3F(10.) 00:40:19 Ac st remy
155 685 RICARD Stéphanie F(81.) M2F(14.) 00:40:28
156 650 BESSE Hugo M(75.) SeM(16.) 00:40:49
157 714 SCHIMBERG Charlotte F(82.) SeF(16.) 00:40:50
158 673 CHARRIERE Camille F(83.) M0F(14.) 00:41:05
159 713 CORNILLE Natacha F(84.) M0F(15.) 00:42:07
160 542 CAVIGLIOLI Raffaellu M(76.) SeM(17.) 00:42:08 Tarahumara
161 541 PANCRAZI Elisa F(85.) SeF(17.) 00:42:08 Tarahumara
162 552 BRAILLON Davy M(77.) SeM(18.) 00:42:40
163 551 DUCOL Mélanie F(86.) M0F(16.) 00:42:40
164 639 BUCHET Myriam F(87.) M1F(13.) 00:43:16
165 621 LORINO Nicole F(88.) M7F(1.) 00:43:16 CAT
166 521 PERROT Philippine F(89.) SeF(18.) 00:43:35
167 522 ZELINSKY Audrey F(90.) M2F(15.) 00:44:35
168 582 DUMERY Coline F(91.) M0F(17.) 00:46:45
169 593 OTTAVI Bakta F(92.) M6F(1.) 00:55:46 CAT
170 592 BOREL Fabrice M(78.) M4M(2.) 01:19:49
171 591 BOREL Hélène F(93.) M5F(3.) 01:20:16
172 588 MARTIN Valerie F(94.) M3F(11.) 01:20:27
173 589 MOURARET Anne F(95.) M4F(5.) 01:20:28
174 590 MARTIN Lilou F(96.) EsF(3.) 01:20:28